Bingham Canyon, Utah
Current Conditions -  °F | °C
As of 4:53 PM on Sunday 21 Dec 2014 (Local Time) from KSLC Reporting Station
Light Rain Light Rain  
Wind Chill: 37°   Ceiling: 4700
Heat Index: 43°   Visibility: 10mi
Dew Point: 39°   Wind: 12mph
Humidity: 86%   Direction: 140°SE
Pressure: 29.92"   Gusts: NA
Location:  40.57°N, 112.1°W
Report Text: KSLC 212353Z 14010KT 10SM -RA BKN047 OVC055 06/04 A2992 RMK AO2 RAB45 SLP126 P0000 60013 T00610039 10067 20044 56000
Loading
Personal Weather Stations






























Interactive Weather Map New forecast layout! Learn more

10-Day Weather Forecast

Advertisements
Track Severe Weather on mobile